EZY35RH EHAM-LDZA
Flight info
| Callsign | EZY35RH |
|---|---|
| Flight time | N/A |
| Altitude | 35000 |
| Route | EDUPO Z739 MISGO DCT DOJOH DCT DODEN DCT NEGIX DCT DINKU DCT BESNI DCT LATLO DCT OBEDI DCT LULUD |
| Aircraft | A320/M-SDE3FGHIRWY/LB1 |
Departure
| Time | N/A |
|---|---|
| Airport | Amsterdam Airport Schiphol (EHAM) |
Arrival
| Time | 2026-04-29 18:44 |
|---|---|
| Airport | Zagreb Franjo Tuđman International Airport (LDZA) |
| Time | Latitude | Longitude | Altitude | Speed | Heading |
|---|---|---|---|---|---|
| 2026-04-29 18:00 | 46.29028 | 14.99513 | 24396 ft | 441 kts | 136° |
| 2026-04-29 18:00 | 46.26949 | 15.02746 | 23899 ft | 437 kts | 136° |
| 2026-04-29 18:01 | 46.24774 | 15.06129 | 23332 ft | 433 kts | 136° |
| 2026-04-29 18:01 | 46.22739 | 15.09291 | 22798 ft | 429 kts | 136° |
| 2026-04-29 18:01 | 46.20684 | 15.12479 | 22250 ft | 425 kts | 136° |
| 2026-04-29 18:01 | 46.18620 | 15.15670 | 21753 ft | 421 kts | 136° |
| 2026-04-29 18:02 | 46.16550 | 15.18869 | 21243 ft | 417 kts | 135° |
| 2026-04-29 18:02 | 46.14579 | 15.21910 | 20766 ft | 413 kts | 135° |
| 2026-04-29 18:02 | 46.12578 | 15.24995 | 20290 ft | 410 kts | 135° |
| 2026-04-29 18:02 | 46.10663 | 15.27947 | 19833 ft | 406 kts | 135° |
| 2026-04-29 18:03 | 46.08733 | 15.30918 | 19376 ft | 403 kts | 135° |
| 2026-04-29 18:03 | 46.06799 | 15.33893 | 18925 ft | 399 kts | 135° |
| 2026-04-29 18:03 | 46.04860 | 15.36873 | 18431 ft | 396 kts | 135° |
| 2026-04-29 18:03 | 46.02976 | 15.39766 | 18011 ft | 390 kts | 135° |
| 2026-04-29 18:04 | 46.01145 | 15.42572 | 17864 ft | 370 kts | 135° |
| 2026-04-29 18:04 | 45.99440 | 15.45187 | 17734 ft | 347 kts | 135° |
| 2026-04-29 18:04 | 45.97842 | 15.47643 | 17611 ft | 329 kts | 135° |
| 2026-04-29 18:04 | 45.96282 | 15.50034 | 17481 ft | 319 kts | 135° |
| 2026-04-29 18:05 | 45.94755 | 15.52358 | 16909 ft | 326 kts | 135° |
| 2026-04-29 18:05 | 45.93170 | 15.54758 | 16285 ft | 333 kts | 135° |
| 2026-04-29 18:05 | 45.91561 | 15.57194 | 15682 ft | 339 kts | 135° |
| 2026-04-29 18:05 | 45.90407 | 15.58946 | 15257 ft | 343 kts | 135° |
| 2026-04-29 18:06 | 45.89677 | 15.60052 | 14972 ft | 344 kts | 138° |
| 2026-04-29 18:06 | 45.88010 | 15.62203 | 14408 ft | 348 kts | 138° |
| 2026-04-29 18:07 | 45.86720 | 15.64028 | 13972 ft | 351 kts | 135° |
| 2026-04-29 18:07 | 45.85439 | 15.65998 | 13478 ft | 352 kts | 133° |
| 2026-04-29 18:07 | 45.83819 | 15.68598 | 12832 ft | 343 kts | 133° |
| 2026-04-29 18:07 | 45.82210 | 15.71053 | 12212 ft | 332 kts | 134° |
| 2026-04-29 18:08 | 45.80603 | 15.73348 | 11604 ft | 323 kts | 135° |
| 2026-04-29 18:08 | 45.78994 | 15.75547 | 11003 ft | 314 kts | 136° |
| 2026-04-29 18:08 | 45.77366 | 15.77632 | 10406 ft | 307 kts | 144° |
| 2026-04-29 18:08 | 45.75411 | 15.78688 | 9795 ft | 300 kts | 176° |
| 2026-04-29 18:09 | 45.73409 | 15.78147 | 9159 ft | 292 kts | 209° |
| 2026-04-29 18:09 | 45.71805 | 15.76441 | 8535 ft | 285 kts | 225° |
| 2026-04-29 18:09 | 45.70476 | 15.74388 | 7927 ft | 280 kts | 231° |
| 2026-04-29 18:09 | 45.69244 | 15.72235 | 7319 ft | 276 kts | 232° |
| 2026-04-29 18:10 | 45.68042 | 15.70130 | 6729 ft | 272 kts | 231° |
| 2026-04-29 18:10 | 45.66826 | 15.68087 | 6103 ft | 268 kts | 229° |
| 2026-04-29 18:10 | 45.65546 | 15.66140 | 5472 ft | 264 kts | 217° |
| 2026-04-29 18:10 | 45.63885 | 15.65164 | 4854 ft | 255 kts | 181° |
| 2026-04-29 18:11 | 45.62195 | 15.65636 | 4240 ft | 246 kts | 148° |
| 2026-04-29 18:11 | 45.60911 | 15.67154 | 4026 ft | 234 kts | 134° |
| 2026-04-29 18:11 | 45.59738 | 15.68748 | 4012 ft | 230 kts | 134° |
| 2026-04-29 18:11 | 45.58589 | 15.70294 | 4012 ft | 230 kts | 134° |
| 2026-04-29 18:12 | 45.57409 | 15.71882 | 4013 ft | 230 kts | 133° |
| 2026-04-29 18:12 | 45.56470 | 15.73694 | 4015 ft | 227 kts | 113° |
| 2026-04-29 18:12 | 45.56017 | 15.75835 | 4017 ft | 225 kts | 94° |
| 2026-04-29 18:12 | 45.56065 | 15.78052 | 4017 ft | 223 kts | 82° |
| 2026-04-29 18:13 | 45.56338 | 15.80204 | 4021 ft | 214 kts | 62° |
| 2026-04-29 18:13 | 45.57316 | 15.81617 | 4018 ft | 194 kts | 30° |
| 2026-04-29 18:13 | 45.58353 | 15.82710 | 4012 ft | 179 kts | 47° |
| 2026-04-29 18:13 | 45.59207 | 15.84028 | 4063 ft | 181 kts | 46° |
| 2026-04-29 18:14 | 45.60078 | 15.85350 | 4036 ft | 180 kts | 46° |
| 2026-04-29 18:14 | 45.60936 | 15.86647 | 3910 ft | 180 kts | 46° |
| 2026-04-29 18:14 | 45.61781 | 15.87924 | 3705 ft | 179 kts | 46° |
| 2026-04-29 18:14 | 45.62632 | 15.89210 | 3487 ft | 178 kts | 46° |
| 2026-04-29 18:15 | 45.63481 | 15.90492 | 3244 ft | 177 kts | 46° |
| 2026-04-29 18:15 | 45.64314 | 15.91752 | 3007 ft | 170 kts | 46° |
| 2026-04-29 18:15 | 45.65101 | 15.92941 | 2783 ft | 158 kts | 46° |
| 2026-04-29 18:15 | 45.65820 | 15.94029 | 2575 ft | 145 kts | 46° |
| 2026-04-29 18:16 | 45.66496 | 15.95052 | 2395 ft | 140 kts | 46° |
| 2026-04-29 18:16 | 45.67164 | 15.96063 | 2201 ft | 140 kts | 46° |
| 2026-04-29 18:16 | 45.67831 | 15.97073 | 2004 ft | 139 kts | 46° |
| 2026-04-29 18:16 | 45.68495 | 15.98079 | 1806 ft | 139 kts | 46° |
| 2026-04-29 18:17 | 45.69158 | 15.99082 | 1606 ft | 139 kts | 46° |
| 2026-04-29 18:17 | 45.69743 | 15.99969 | 1434 ft | 138 kts | 46° |
| 2026-04-29 18:17 | 45.70404 | 16.00971 | 1231 ft | 138 kts | 47° |
| 2026-04-29 18:17 | 45.71064 | 16.01972 | 1029 ft | 138 kts | 47° |
| 2026-04-29 18:18 | 45.71722 | 16.02971 | 833 ft | 139 kts | 47° |
| 2026-04-29 18:18 | 45.72392 | 16.03988 | 643 ft | 140 kts | 47° |
| 2026-04-29 18:18 | 45.73082 | 16.05030 | 426 ft | 140 kts | 46° |
| 2026-04-29 18:18 | 45.73636 | 16.05871 | 361 ft | 122 kts | 47° |
| 2026-04-29 18:19 | 45.74101 | 16.06589 | 362 ft | 91 kts | 44° |
| 2026-04-29 18:19 | 45.74708 | 16.07497 | 360 ft | 162 kts | 48° |
| 2026-04-29 18:19 | 45.75567 | 16.08803 | 1006 ft | 180 kts | 46° |
| 2026-04-29 18:19 | 45.76434 | 16.10114 | 2139 ft | 182 kts | 46° |
| 2026-04-29 18:20 | 45.77301 | 16.11470 | 3187 ft | 189 kts | 47° |
| 2026-04-29 18:20 | 45.78216 | 16.12939 | 3850 ft | 207 kts | 48° |
| 2026-04-29 18:20 | 45.79180 | 16.14495 | 3993 ft | 210 kts | 48° |
| 2026-04-29 18:20 | 45.80160 | 16.16082 | 4035 ft | 209 kts | 48° |
| 2026-04-29 18:21 | 45.81122 | 16.17642 | 4033 ft | 209 kts | 48° |
| 2026-04-29 18:21 | 45.82086 | 16.19205 | 4034 ft | 209 kts | 48° |
| 2026-04-29 18:21 | 45.83051 | 16.20758 | 4032 ft | 209 kts | 47° |
| 2026-04-29 18:21 | 45.83788 | 16.22528 | 4030 ft | 210 kts | 77° |
| 2026-04-29 18:22 | 45.83685 | 16.24595 | 4028 ft | 214 kts | 112° |
| 2026-04-29 18:22 | 45.82804 | 16.26342 | 4036 ft | 219 kts | 132° |
| 2026-04-29 18:22 | 45.81697 | 16.27872 | 4031 ft | 220 kts | 135° |
| 2026-04-29 18:22 | 45.80565 | 16.29355 | 4032 ft | 220 kts | 135° |
| 2026-04-29 18:23 | 45.79433 | 16.30824 | 4030 ft | 220 kts | 135° |
| 2026-04-29 18:23 | 45.78671 | 16.31813 | 4030 ft | 220 kts | 135° |
| 2026-04-29 18:23 | 45.77539 | 16.33284 | 4028 ft | 219 kts | 135° |
| 2026-04-29 18:23 | 45.76408 | 16.34755 | 4026 ft | 219 kts | 135° |
| 2026-04-29 18:24 | 45.75278 | 16.36224 | 4028 ft | 220 kts | 135° |
| 2026-04-29 18:24 | 45.74149 | 16.37695 | 4027 ft | 220 kts | 135° |
| 2026-04-29 18:24 | 45.73022 | 16.39166 | 4026 ft | 219 kts | 135° |
| 2026-04-29 18:24 | 45.71896 | 16.40638 | 4023 ft | 220 kts | 135° |
| 2026-04-29 18:25 | 45.70765 | 16.42115 | 4022 ft | 220 kts | 135° |
| 2026-04-29 18:25 | 45.69556 | 16.43447 | 4015 ft | 221 kts | 155° |
| 2026-04-29 18:25 | 45.68040 | 16.43748 | 4020 ft | 225 kts | 190° |
| 2026-04-29 18:25 | 45.66646 | 16.42791 | 4020 ft | 226 kts | 224° |
| 2026-04-29 18:26 | 45.65613 | 16.41085 | 4024 ft | 227 kts | 233° |
| 2026-04-29 18:26 | 45.64670 | 16.39242 | 4025 ft | 227 kts | 235° |
| 2026-04-29 18:26 | 45.63756 | 16.37409 | 4023 ft | 227 kts | 235° |
| 2026-04-29 18:26 | 45.62844 | 16.35573 | 4025 ft | 227 kts | 235° |
| 2026-04-29 18:27 | 45.61930 | 16.33732 | 4025 ft | 227 kts | 235° |
| 2026-04-29 18:27 | 45.61017 | 16.31893 | 4027 ft | 227 kts | 235° |
| 2026-04-29 18:27 | 45.60105 | 16.30055 | 4026 ft | 227 kts | 235° |
| 2026-04-29 18:27 | 45.59193 | 16.28217 | 4025 ft | 227 kts | 235° |
| 2026-04-29 18:28 | 45.58278 | 16.26373 | 4024 ft | 227 kts | 235° |
| 2026-04-29 18:28 | 45.57379 | 16.24562 | 4026 ft | 227 kts | 235° |
| 2026-04-29 18:28 | 45.56427 | 16.22643 | 4031 ft | 227 kts | 235° |
| 2026-04-29 18:28 | 45.55514 | 16.20803 | 4028 ft | 227 kts | 235° |
| 2026-04-29 18:29 | 45.54604 | 16.18968 | 4024 ft | 227 kts | 235° |
| 2026-04-29 18:29 | 45.54002 | 16.17752 | 4025 ft | 227 kts | 235° |
| 2026-04-29 18:29 | 45.52782 | 16.15292 | 4023 ft | 226 kts | 235° |
| 2026-04-29 18:29 | 45.51873 | 16.13462 | 4026 ft | 227 kts | 235° |
| 2026-04-29 18:30 | 45.50959 | 16.11623 | 4022 ft | 227 kts | 235° |
| 2026-04-29 18:30 | 45.50048 | 16.09789 | 4021 ft | 226 kts | 235° |
| 2026-04-29 18:30 | 45.49137 | 16.07957 | 4022 ft | 227 kts | 235° |
| 2026-04-29 18:30 | 45.48229 | 16.06128 | 4020 ft | 227 kts | 235° |
| 2026-04-29 18:31 | 45.47304 | 16.04266 | 4020 ft | 227 kts | 235° |
| 2026-04-29 18:31 | 45.46393 | 16.02433 | 4016 ft | 227 kts | 235° |
| 2026-04-29 18:31 | 45.45482 | 16.00599 | 4017 ft | 226 kts | 235° |
| 2026-04-29 18:31 | 45.44560 | 15.98743 | 4015 ft | 227 kts | 235° |
| 2026-04-29 18:32 | 45.43652 | 15.96912 | 4016 ft | 226 kts | 235° |
| 2026-04-29 18:32 | 45.41835 | 15.93251 | 4010 ft | 226 kts | 235° |
| 2026-04-29 18:32 | 45.40927 | 15.91422 | 4008 ft | 226 kts | 235° |
| 2026-04-29 18:33 | 45.40018 | 15.89591 | 4009 ft | 227 kts | 235° |
| 2026-04-29 18:33 | 45.39110 | 15.87757 | 4007 ft | 226 kts | 235° |
| 2026-04-29 18:33 | 45.38204 | 15.85930 | 4005 ft | 226 kts | 235° |
| 2026-04-29 18:33 | 45.37350 | 15.84052 | 4004 ft | 226 kts | 248° |
| 2026-04-29 18:34 | 45.37068 | 15.81886 | 4006 ft | 223 kts | 277° |
| 2026-04-29 18:34 | 45.37293 | 15.80476 | 4007 ft | 221 kts | 296° |
| 2026-04-29 18:34 | 45.38588 | 15.78320 | 4010 ft | 215 kts | 333° |
| 2026-04-29 18:34 | 45.39985 | 15.77688 | 4011 ft | 211 kts | 358° |
| 2026-04-29 18:35 | 45.41457 | 15.77560 | 4010 ft | 212 kts | 358° |
| 2026-04-29 18:35 | 45.42926 | 15.77421 | 4013 ft | 211 kts | 358° |
| 2026-04-29 18:35 | 45.44390 | 15.77280 | 4011 ft | 211 kts | 358° |
| 2026-04-29 18:35 | 45.45858 | 15.77140 | 4014 ft | 212 kts | 358° |
| 2026-04-29 18:36 | 45.47177 | 15.77012 | 4014 ft | 211 kts | 358° |
| 2026-04-29 18:36 | 45.48577 | 15.76876 | 4016 ft | 212 kts | 358° |
| 2026-04-29 18:36 | 45.50048 | 15.76733 | 4017 ft | 211 kts | 358° |
| 2026-04-29 18:36 | 45.51515 | 15.76590 | 4019 ft | 212 kts | 358° |
| 2026-04-29 18:37 | 45.52982 | 15.76552 | 4015 ft | 209 kts | 9° |
| 2026-04-29 18:37 | 45.54376 | 15.77168 | 4018 ft | 208 kts | 30° |
| 2026-04-29 18:37 | 45.55511 | 15.78420 | 4023 ft | 207 kts | 47° |
| 2026-04-29 18:37 | 45.56485 | 15.79929 | 4027 ft | 207 kts | 47° |
| 2026-04-29 18:38 | 45.57453 | 15.81400 | 4023 ft | 200 kts | 47° |
| 2026-04-29 18:38 | 45.58409 | 15.82844 | 4026 ft | 200 kts | 47° |
| 2026-04-29 18:38 | 45.59365 | 15.84287 | 4027 ft | 200 kts | 46° |
| 2026-04-29 18:38 | 45.60318 | 15.85729 | 4029 ft | 200 kts | 46° |
| 2026-04-29 18:39 | 45.61282 | 15.87182 | 3759 ft | 202 kts | 46° |
| 2026-04-29 18:39 | 45.62233 | 15.88616 | 3522 ft | 198 kts | 46° |
| 2026-04-29 18:39 | 45.63173 | 15.90037 | 3206 ft | 192 kts | 46° |
| 2026-04-29 18:39 | 45.64061 | 15.91378 | 2952 ft | 177 kts | 46° |
| 2026-04-29 18:40 | 45.64861 | 15.92585 | 2720 ft | 159 kts | 46° |
| 2026-04-29 18:40 | 45.65592 | 15.93691 | 2516 ft | 144 kts | 46° |
| 2026-04-29 18:40 | 45.66249 | 15.94688 | 2337 ft | 133 kts | 46° |
| 2026-04-29 18:40 | 45.66883 | 15.95649 | 2180 ft | 132 kts | 46° |
| 2026-04-29 18:41 | 45.68784 | 15.98529 | 1628 ft | 133 kts | 45° |
| 2026-04-29 18:41 | 45.69422 | 15.99495 | 1441 ft | 134 kts | 46° |
| 2026-04-29 18:42 | 45.70066 | 16.00472 | 1256 ft | 136 kts | 46° |
| 2026-04-29 18:42 | 45.70719 | 16.01461 | 1070 ft | 138 kts | 46° |
| 2026-04-29 18:42 | 45.71385 | 16.02470 | 889 ft | 140 kts | 46° |
| 2026-04-29 18:42 | 45.72057 | 16.03486 | 701 ft | 140 kts | 47° |
| 2026-04-29 18:43 | 45.72739 | 16.04515 | 541 ft | 141 kts | 46° |
| 2026-04-29 18:43 | 45.73410 | 16.05528 | 372 ft | 138 kts | 47° |
| 2026-04-29 18:43 | 45.73995 | 16.06424 | 361 ft | 102 kts | 47° |
| 2026-04-29 18:43 | 45.74375 | 16.07004 | 365 ft | 62 kts | 48° |
| 2026-04-29 18:44 | 45.74644 | 16.07412 | 358 ft | 45 kts | 47° |
| 2026-04-29 18:44 | 45.74816 | 16.07672 | 363 ft | 33 kts | 47° |
| 2026-04-29 18:44 | 45.74946 | 16.07876 | 358 ft | 19 kts | 64° |
| 2026-04-29 18:44 | 45.74907 | 16.08000 | 364 ft | 4 kts | 136° |
| 2026-04-29 18:45 | 45.74896 | 16.08016 | 363 ft | 1 kts | 136° |
| 2026-04-29 18:45 | 45.74895 | 16.08016 | 363 ft | 0 kts | 136° |
| 2026-04-29 18:46 | 45.74886 | 16.08029 | 358 ft | 6 kts | 136° |
| 2026-04-29 18:46 | 45.74866 | 16.08056 | 366 ft | 2 kts | 136° |
| 2026-04-29 18:46 | 45.74858 | 16.08067 | 359 ft | 3 kts | 140° |
| 2026-04-29 18:46 | 45.74837 | 16.08075 | 359 ft | 6 kts | 183° |
| 2026-04-29 18:47 | 45.74791 | 16.08028 | 359 ft | 10 kts | 227° |
| 2026-04-29 18:47 | 45.74731 | 16.07939 | 362 ft | 15 kts | 226° |
| 2026-04-29 18:47 | 45.74643 | 16.07806 | 364 ft | 19 kts | 227° |
| 2026-04-29 18:47 | 45.74564 | 16.07700 | 364 ft | 12 kts | 194° |
| 2026-04-29 18:48 | 45.74506 | 16.07742 | 359 ft | 10 kts | 135° |
| 2026-04-29 18:48 | 45.74444 | 16.07826 | 359 ft | 15 kts | 136° |
| 2026-04-29 18:48 | 45.74359 | 16.07915 | 363 ft | 15 kts | 143° |
| 2026-04-29 18:48 | 45.74311 | 16.07978 | 358 ft | 3 kts | 136° |
| 2026-04-29 18:49 | 45.74304 | 16.07988 | 358 ft | 0 kts | 137° |
| 2026-04-29 18:49 | 45.74299 | 16.07994 | 359 ft | 1 kts | 137° |
| 2026-04-29 18:49 | 45.74297 | 16.07996 | 359 ft | 1 kts | 137° |
| 2026-04-29 18:49 | 45.74297 | 16.07997 | 359 ft | 0 kts | 137° |